Time;durP1;ratioP1;P1;durP2;ratioP2;P2;SDS_P1;SDS_P2;PMS_P1;PMS_P2;Temp;Humidity;BMP_temperature;BMP_pressure;BME280_temperature;BME280_humidity;BME280_pressure;Samples;Min_cycle;Max_cycle;Signal;HPM_P1;HPM_P2
2021/12/31 00:00:16;;;;;;;0.00;0.00;;;12.30;99.90;;;;;;4940374;28;20101;-65
2021/12/31 00:02:42;;;;;;;0.03;0.03;;;12.40;99.90;;;;;;4940016;28;20039;-65
2021/12/31 00:05:08;;;;;;;0.47;0.20;;;12.40;99.90;;;;;;4939330;29;20183;-64
2021/12/31 00:07:34;;;;;;;0.03;0.03;;;12.40;99.90;;;;;;4939374;29;20073;-65
2021/12/31 00:10:01;;;;;;;0.10;0.10;;;12.40;99.90;;;;;;4940152;28;20058;-65
2021/12/31 00:12:28;;;;;;;1.65;0.10;;;12.40;99.90;;;;;;4939468;28;20047;-64
2021/12/31 00:14:53;;;;;;;0.00;0.00;;;12.40;99.90;;;;;;4940701;28;20113;-64
2021/12/31 00:17:19;;;;;;;0.05;0.05;;;12.60;99.90;;;;;;4938289;28;20486;-63
2021/12/31 00:19:46;;;;;;;0.00;0.00;;;13.40;99.90;;;;;;4939141;28;20051;-64
2021/12/31 00:24:58;;;;;;;0.10;0.10;;;12.70;99.90;;;;;;4937868;28;20059;-64
2021/12/31 00:27:23;;;;;;;0.10;0.10;;;12.50;99.90;;;;;;4937551;28;20130;-63
2021/12/31 00:29:49;;;;;;;0.32;0.32;;;12.50;99.90;;;;;;4935807;29;20131;-63
2021/12/31 00:32:15;;;;;;;0.00;0.00;;;12.50;99.90;;;;;;4935255;29;20687;-64
2021/12/31 00:34:40;;;;;;;0.10;0.10;;;13.40;99.90;;;;;;4920344;28;20048;-64
2021/12/31 00:37:06;;;;;;;0.22;0.22;;;12.50;99.90;;;;;;4919983;29;20048;-64
2021/12/31 00:39:32;;;;;;;0.00;0.00;;;12.50;99.90;;;;;;4920365;29;20048;-64
2021/12/31 00:41:57;;;;;;;0.00;0.00;;;12.80;99.90;;;;;;4921276;28;20067;-64
2021/12/31 00:44:25;;;;;;;0.00;0.00;;;12.50;99.90;;;;;;4919476;29;20372;-66
2021/12/31 00:46:51;;;;;;;0.00;0.00;;;12.50;99.90;;;;;;4920305;28;20063;-64
2021/12/31 00:49:16;;;;;;;0.00;0.00;;;12.50;99.90;;;;;;4920828;29;20044;-64
2021/12/31 00:51:42;;;;;;;0.00;0.00;;;12.70;99.90;;;;;;4919829;28;20255;-64
2021/12/31 00:54:08;;;;;;;0.00;0.00;;;12.60;99.90;;;;;;4921127;29;20052;-64
2021/12/31 00:56:34;;;;;;;0.20;0.20;;;12.80;99.90;;;;;;4921330;28;20055;-63
2021/12/31 00:59:00;;;;;;;0.00;0.00;;;12.50;99.90;;;;;;4920100;28;20173;-64
2021/12/31 01:01:26;;;;;;;0.00;0.00;;;12.50;99.90;;;;;;4918425;29;20525;-65
2021/12/31 01:03:52;;;;;;;0.00;0.00;;;12.90;99.90;;;;;;4920721;28;20533;-64
2021/12/31 01:06:18;;;;;;;0.00;0.00;;;12.70;99.90;;;;;;4919449;29;20097;-64
2021/12/31 01:08:44;;;;;;;1.30;0.55;;;12.50;99.90;;;;;;4919427;28;20083;-64
2021/12/31 01:11:10;;;;;;;0.00;0.00;;;12.50;99.90;;;;;;4920353;28;20048;-64
2021/12/31 01:13:49;;;;;;;0.00;0.00;;;12.40;99.90;;;;;;4921012;29;20611;-63
2021/12/31 01:16:17;;;;;;;0.10;0.10;;;12.60;99.90;;;;;;4920068;29;20043;-64
2021/12/31 01:21:20;;;;;;;0.32;0.32;;;12.40;99.90;;;;;;4920686;28;20130;-63
2021/12/31 01:23:46;;;;;;;0.00;0.00;;;12.40;99.90;;;;;;4920445;29;20055;-64
2021/12/31 01:26:12;;;;;;;0.10;0.10;;;12.60;99.90;;;;;;4920262;29;20392;-64
2021/12/31 01:28:38;;;;;;;0.00;0.00;;;12.40;99.90;;;;;;4924991;29;20058;-66
2021/12/31 01:31:04;;;;;;;0.00;0.00;;;12.60;99.90;;;;;;4923144;28;20059;-64
2021/12/31 01:33:30;;;;;;;0.47;0.10;;;12.50;99.90;;;;;;4920836;28;20131;-64
2021/12/31 01:35:56;;;;;;;0.00;0.00;;;12.40;99.90;;;;;;4919924;29;20051;-64
2021/12/31 01:38:21;;;;;;;0.00;0.00;;;12.40;99.90;;;;;;4923617;29;20055;-64
2021/12/31 01:40:49;;;;;;;0.08;0.08;;;12.50;99.90;;;;;;4922346;29;20569;-64
2021/12/31 01:43:16;;;;;;;0.00;0.00;;;12.40;99.90;;;;;;4923664;29;20075;-63
2021/12/31 01:45:53;;;;;;;0.00;0.00;;;12.40;99.90;;;;;;4923197;28;20710;-63
2021/12/31 01:48:32;;;;;;;0.00;0.00;;;12.40;99.90;;;;;;4923644;29;20438;-63
2021/12/31 01:50:58;;;;;;;0.00;0.00;;;12.40;99.90;;;;;;4922193;29;20052;-64
2021/12/31 01:53:25;;;;;;;0.98;0.15;;;12.30;99.90;;;;;;4923380;29;20044;-63
2021/12/31 01:55:55;;;;;;;0.00;0.00;;;13.40;99.90;;;;;;4923203;28;20051;-63
2021/12/31 01:58:23;;;;;;;0.00;0.00;;;12.40;99.90;;;;;;4923047;28;20059;-64
2021/12/31 02:00:48;;;;;;;0.00;0.00;;;13.00;99.90;;;;;;4921556;28;20039;-64
2021/12/31 02:03:17;;;;;;;0.00;0.00;;;12.40;99.90;;;;;;4923407;29;20091;-63
2021/12/31 02:05:42;;;;;;;0.00;0.00;;;12.40;99.90;;;;;;4921810;29;20118;-64
2021/12/31 02:08:08;;;;;;;0.10;0.10;;;12.40;99.90;;;;;;4922544;28;20521;-63
2021/12/31 02:10:34;;;;;;;0.00;0.00;;;12.40;99.90;;;;;;4923563;28;20071;-63
2021/12/31 02:12:59;;;;;;;12.73;1.75;;;12.40;99.90;;;;;;4930307;29;20092;-64
2021/12/31 02:15:26;;;;;;;0.20;0.20;;;11.80;99.90;;;;;;4942561;28;20083;-64
2021/12/31 02:17:53;;;;;;;0.00;0.00;;;12.30;99.90;;;;;;4941037;28;20680;-64
2021/12/31 02:20:20;;;;;;;0.00;0.00;;;12.30;99.90;;;;;;4925010;29;20126;-64
2021/12/31 02:22:55;;;;;;;0.00;0.00;;;12.70;99.90;;;;;;4940946;29;20043;-64
2021/12/31 02:25:24;;;;;;;0.00;0.00;;;12.40;99.90;;;;;;4940437;28;20051;-63
2021/12/31 02:27:50;;;;;;;0.00;0.00;;;12.30;99.90;;;;;;4939739;28;20059;-64
2021/12/31 02:30:16;;;;;;;0.00;0.00;;;12.30;99.90;;;;;;4931321;28;20047;-64
2021/12/31 02:32:42;;;;;;;0.00;0.00;;;12.40;99.90;;;;;;4921330;29;20106;-63
2021/12/31 02:35:10;;;;;;;0.40;0.40;;;12.30;99.90;;;;;;4921262;29;20106;-63
2021/12/31 02:37:35;;;;;;;0.00;0.00;;;12.50;99.90;;;;;;4922915;29;20125;-64
2021/12/31 02:40:03;;;;;;;0.00;0.00;;;12.40;99.90;;;;;;4937645;29;20438;-64
2021/12/31 02:42:29;;;;;;;0.00;0.00;;;12.70;99.90;;;;;;4922850;28;20047;-64
2021/12/31 02:44:56;;;;;;;0.32;0.10;;;12.40;99.90;;;;;;4922630;28;20139;-63
2021/12/31 02:47:22;;;;;;;0.03;0.03;;;12.50;99.90;;;;;;4921986;29;20088;-64
2021/12/31 02:49:49;;;;;;;0.00;0.00;;;12.50;99.90;;;;;;4921756;28;20059;-63
2021/12/31 02:52:16;;;;;;;0.05;0.05;;;12.40;99.90;;;;;;4921180;28;20565;-64
2021/12/31 02:54:47;;;;;;;0.00;0.00;;;12.80;99.90;;;;;;4922367;28;20042;-64
2021/12/31 02:57:14;;;;;;;0.00;0.00;;;12.50;99.90;;;;;;4922502;28;20074;-64
2021/12/31 02:59:41;;;;;;;0.00;0.00;;;12.50;99.90;;;;;;4921944;28;20067;-64
2021/12/31 03:02:08;;;;;;;0.00;0.00;;;12.50;99.90;;;;;;4921825;29;20047;-64
2021/12/31 03:04:39;;;;;;;0.00;0.00;;;12.50;99.90;;;;;;4921139;29;20055;-64
2021/12/31 03:07:06;;;;;;;0.00;0.00;;;12.50;99.90;;;;;;4922085;28;20083;-64
2021/12/31 03:09:34;;;;;;;0.00;0.00;;;12.60;99.90;;;;;;4921061;28;20055;-63
2021/12/31 03:12:01;;;;;;;0.05;0.05;;;12.60;99.90;;;;;;4922638;29;20537;-64
2021/12/31 03:14:28;;;;;;;0.00;0.00;;;13.30;99.90;;;;;;4922269;29;20121;-64
2021/12/31 03:16:54;;;;;;;0.00;0.00;;;12.50;99.90;;;;;;4920715;29;20060;-64
2021/12/31 03:19:21;;;;;;;0.20;0.20;;;13.10;99.90;;;;;;4922104;29;20123;-63
2021/12/31 03:21:47;;;;;;;0.10;0.10;;;12.60;99.90;;;;;;4920727;29;20052;-64
2021/12/31 03:24:13;;;;;;;0.45;0.45;;;12.60;99.90;;;;;;4920861;28;20124;-64
2021/12/31 03:26:39;;;;;;;0.00;0.00;;;12.60;99.90;;;;;;4921955;28;20056;-64
2021/12/31 03:29:05;;;;;;;0.00;0.00;;;12.60;99.90;;;;;;4929803;29;20776;-64
2021/12/31 03:31:31;;;;;;;0.00;0.00;;;12.60;99.90;;;;;;4923207;28;20091;-64
2021/12/31 03:33:57;;;;;;;0.00;0.00;;;12.70;99.90;;;;;;4922013;28;20118;-64
2021/12/31 03:36:22;;;;;;;0.05;0.05;;;12.70;99.90;;;;;;4921244;29;20154;-64
2021/12/31 03:38:48;;;;;;;0.10;0.10;;;12.70;99.90;;;;;;4920879;29;20134;-64
2021/12/31 03:41:14;;;;;;;0.00;0.00;;;12.70;99.90;;;;;;4921797;29;20498;-64
2021/12/31 03:43:39;;;;;;;0.00;0.00;;;12.70;99.90;;;;;;4921735;29;20059;-64
2021/12/31 03:46:07;;;;;;;0.05;0.00;;;12.70;99.90;;;;;;4919761;29;20070;-64
2021/12/31 03:48:33;;;;;;;3.88;1.60;;;12.80;99.90;;;;;;4921922;29;20055;-64
2021/12/31 03:50:58;;;;;;;0.00;0.00;;;13.80;99.90;;;;;;4921994;29;20062;-64
2021/12/31 03:53:24;;;;;;;0.43;0.35;;;12.80;99.90;;;;;;4921116;28;20039;-64
2021/12/31 03:55:50;;;;;;;0.00;0.00;;;12.80;99.90;;;;;;4921445;29;20044;-64
2021/12/31 03:58:15;;;;;;;0.10;0.08;;;12.80;99.90;;;;;;4922021;29;20182;-64
2021/12/31 04:00:41;;;;;;;0.10;0.10;;;12.90;99.90;;;;;;4919313;29;20120;-64
2021/12/31 04:03:09;;;;;;;0.00;0.00;;;12.80;99.90;;;;;;4921103;28;20066;-64
2021/12/31 04:05:37;;;;;;;0.25;0.10;;;12.90;99.90;;;;;;4921393;29;20048;-64
2021/12/31 04:08:04;;;;;;;0.00;0.00;;;12.80;99.90;;;;;;4921019;28;20052;-64
2021/12/31 04:10:29;;;;;;;0.65;0.20;;;12.80;99.90;;;;;;4922123;29;20078;-64
2021/12/31 04:12:55;;;;;;;0.00;0.00;;;13.10;99.90;;;;;;4920896;29;20047;-64
2021/12/31 04:15:22;;;;;;;0.00;0.00;;;12.80;99.90;;;;;;4921444;28;20109;-64
2021/12/31 04:17:47;;;;;;;0.00;0.00;;;13.10;99.90;;;;;;4919676;28;20402;-64
2021/12/31 04:20:31;;;;;;;0.00;0.00;;;13.10;99.90;;;;;;4921144;28;20055;-64
2021/12/31 04:22:58;;;;;;;0.00;0.00;;;12.80;99.90;;;;;;4919995;28;20052;-63
2021/12/31 04:25:24;;;;;;;0.00;0.00;;;12.80;99.90;;;;;;4921434;29;20465;-64
2021/12/31 04:27:50;;;;;;;1.05;0.73;;;12.90;99.90;;;;;;4923223;28;20047;-64
2021/12/31 04:30:16;;;;;;;0.28;0.10;;;13.00;99.90;;;;;;4929518;29;20055;-64
2021/12/31 04:32:43;;;;;;;0.20;0.20;;;12.80;99.90;;;;;;4919450;29;20560;-64
2021/12/31 04:35:11;;;;;;;0.00;0.00;;;12.90;99.90;;;;;;4921556;28;20062;-64
2021/12/31 04:37:39;;;;;;;0.00;0.00;;;12.90;99.90;;;;;;4935462;29;20091;-64
2021/12/31 04:40:07;;;;;;;0.05;0.05;;;13.00;99.90;;;;;;4919735;28;20050;-64
2021/12/31 04:42:33;;;;;;;0.00;0.00;;;12.90;99.90;;;;;;4921117;28;20494;-64
2021/12/31 04:44:59;;;;;;;0.20;0.17;;;12.90;99.90;;;;;;4920634;29;20082;-64
2021/12/31 04:47:24;;;;;;;0.00;0.00;;;12.90;99.90;;;;;;4919009;29;20531;-64
2021/12/31 04:49:50;;;;;;;0.00;0.00;;;13.20;99.90;;;;;;4920931;28;20414;-64
2021/12/31 04:52:15;;;;;;;0.00;0.00;;;12.90;99.90;;;;;;4921236;28;20039;-64
2021/12/31 04:54:41;;;;;;;0.00;0.00;;;13.10;99.90;;;;;;4920494;29;20048;-64
2021/12/31 04:57:07;;;;;;;0.10;0.10;;;12.90;99.90;;;;;;4921092;29;20055;-64
2021/12/31 04:59:32;;;;;;;0.17;0.17;;;13.00;99.90;;;;;;4921187;28;20052;-63
2021/12/31 05:01:58;;;;;;;0.00;0.00;;;13.10;99.90;;;;;;4920739;29;20433;-65
2021/12/31 05:04:24;;;;;;;0.47;0.20;;;13.10;99.90;;;;;;4903251;28;20056;-64
2021/12/31 05:06:50;;;;;;;0.52;0.52;;;13.10;99.90;;;;;;4919423;29;20058;-65
2021/12/31 05:09:16;;;;;;;0.00;0.00;;;13.10;99.90;;;;;;4920850;28;20060;-64
2021/12/31 05:11:42;;;;;;;0.00;0.00;;;13.10;99.90;;;;;;4936347;28;20040;-64
2021/12/31 05:14:09;;;;;;;0.00;0.00;;;14.10;99.90;;;;;;4922313;28;20067;-64
2021/12/31 05:16:35;;;;;;;0.00;0.00;;;13.00;99.90;;;;;;4923668;28;20059;-64
2021/12/31 05:19:05;;;;;;;0.00;0.00;;;13.00;99.90;;;;;;4924358;28;20051;-64
2021/12/31 05:21:31;;;;;;;0.30;0.30;;;13.10;99.90;;;;;;4922656;28;20054;-64
2021/12/31 05:23:57;;;;;;;0.00;0.00;;;13.00;99.90;;;;;;4923908;28;20067;-64
2021/12/31 05:26:23;;;;;;;0.08;0.08;;;13.00;99.90;;;;;;4922866;29;20048;-64
2021/12/31 05:28:49;;;;;;;0.00;0.00;;;12.90;99.90;;;;;;4930866;29;20138;-64
2021/12/31 05:31:16;;;;;;;0.73;0.73;;;12.90;99.90;;;;;;4926273;28;20035;-64
2021/12/31 05:33:41;;;;;;;0.08;0.08;;;12.80;99.90;;;;;;4923747;29;20054;-64
2021/12/31 05:36:07;;;;;;;0.00;0.00;;;12.80;99.90;;;;;;4922708;28;20047;-64
2021/12/31 05:38:33;;;;;;;0.00;0.00;;;12.80;99.90;;;;;;4923807;28;20048;-64
2021/12/31 05:40:59;;;;;;;0.00;0.00;;;12.80;99.90;;;;;;4923515;29;20058;-64
2021/12/31 05:43:25;;;;;;;0.00;0.00;;;12.80;99.90;;;;;;4922428;28;20060;-64
2021/12/31 05:45:50;;;;;;;0.00;0.00;;;12.70;99.90;;;;;;4921684;29;20052;-64
2021/12/31 05:48:16;;;;;;;0.08;0.08;;;12.80;99.90;;;;;;4923632;28;20040;-64
2021/12/31 05:50:41;;;;;;;0.68;0.65;;;12.80;99.90;;;;;;4922069;29;20056;-64
2021/12/31 05:53:07;;;;;;;0.00;0.00;;;12.80;99.90;;;;;;4923707;29;20058;-64
2021/12/31 05:55:33;;;;;;;0.00;0.00;;;12.80;99.90;;;;;;4923714;29;20443;-64
2021/12/31 05:58:00;;;;;;;0.05;0.05;;;12.80;99.90;;;;;;4922550;29;20426;-64
2021/12/31 06:00:26;;;;;;;0.10;0.10;;;12.80;99.90;;;;;;4922104;28;20048;-64
2021/12/31 06:02:52;;;;;;;0.00;0.00;;;13.40;99.90;;;;;;4923223;29;20075;-64
2021/12/31 06:05:18;;;;;;;0.00;0.00;;;13.10;99.90;;;;;;4923407;28;20160;-64
2021/12/31 06:07:43;;;;;;;1.17;0.47;;;12.90;99.90;;;;;;4922610;29;20594;-64
2021/12/31 06:10:09;;;;;;;0.00;0.00;;;12.90;99.90;;;;;;4922967;28;20066;-64
2021/12/31 06:12:36;;;;;;;0.00;0.00;;;12.90;99.90;;;;;;4922045;29;20048;-64
2021/12/31 06:15:04;;;;;;;0.08;0.05;;;12.90;99.90;;;;;;4922007;28;20055;-64
2021/12/31 06:17:31;;;;;;;0.55;0.55;;;12.90;99.90;;;;;;4920984;29;20039;-64
2021/12/31 06:19:57;;;;;;;0.47;0.10;;;12.90;99.90;;;;;;4922918;29;20063;-64
2021/12/31 06:22:24;;;;;;;0.00;0.00;;;12.90;99.90;;;;;;4923050;29;20047;-64
2021/12/31 06:24:50;;;;;;;0.40;0.25;;;13.00;99.90;;;;;;4921907;29;20070;-64
2021/12/31 06:27:17;;;;;;;0.08;0.08;;;12.90;99.90;;;;;;4921394;28;20134;-64
2021/12/31 06:29:42;;;;;;;0.00;0.00;;;12.90;99.90;;;;;;4931769;29;20138;-64
2021/12/31 06:32:08;;;;;;;0.15;0.15;;;13.70;99.90;;;;;;4920799;28;20609;-64
2021/12/31 06:34:34;;;;;;;0.10;0.10;;;13.00;99.90;;;;;;4923072;29;20060;-64
2021/12/31 06:36:59;;;;;;;0.10;0.10;;;13.00;99.90;;;;;;4922567;29;20070;-64
2021/12/31 06:39:26;;;;;;;0.05;0.05;;;12.90;99.90;;;;;;4937320;29;20078;-63
2021/12/31 06:41:52;;;;;;;0.00;0.00;;;12.90;99.90;;;;;;4922467;29;20055;-64
2021/12/31 06:44:18;;;;;;;0.17;0.17;;;13.00;99.90;;;;;;4922257;28;20044;-64
2021/12/31 06:46:44;;;;;;;0.00;0.00;;;12.90;99.90;;;;;;4921803;29;20109;-64
2021/12/31 06:49:09;;;;;;;0.20;0.20;;;13.40;99.90;;;;;;4922616;28;20130;-64
2021/12/31 06:51:35;;;;;;;0.00;0.00;;;12.90;99.90;;;;;;4921213;29;20040;-65
2021/12/31 06:54:01;;;;;;;0.00;0.00;;;13.00;99.90;;;;;;4922299;29;20534;-64
2021/12/31 06:56:27;;;;;;;1.00;0.10;;;12.80;99.90;;;;;;4922522;29;20965;-64
2021/12/31 06:58:53;;;;;;;0.28;0.20;;;12.90;99.90;;;;;;4922630;29;20711;-64
2021/12/31 07:01:18;;;;;;;0.70;0.30;;;12.80;99.90;;;;;;4921901;28;20127;-64
2021/12/31 07:03:44;;;;;;;0.63;0.22;;;12.80;99.90;;;;;;4921757;29;20039;-64
2021/12/31 07:06:10;;;;;;;0.00;0.00;;;12.80;99.90;;;;;;4922277;29;20046;-64
2021/12/31 07:08:35;;;;;;;0.22;0.22;;;12.80;99.90;;;;;;4922367;28;20532;-64
2021/12/31 07:11:01;;;;;;;0.15;0.15;;;12.80;99.90;;;;;;4922794;29;20055;-64
2021/12/31 07:13:27;;;;;;;0.20;0.20;;;12.80;99.90;;;;;;4920888;29;20403;-64
2021/12/31 07:15:54;;;;;;;0.15;0.15;;;12.80;99.90;;;;;;4921769;29;20051;-63
2021/12/31 07:18:21;;;;;;;0.00;0.00;;;12.80;99.90;;;;;;4922313;29;20047;-64
2021/12/31 07:20:47;;;;;;;0.20;0.10;;;13.00;99.90;;;;;;4922346;29;20142;-64
2021/12/31 07:23:16;;;;;;;0.20;0.20;;;12.90;99.90;;;;;;4920521;29;20051;-64
2021/12/31 07:25:41;;;;;;;0.10;0.10;;;12.80;99.90;;;;;;4921895;29;20110;-64
2021/12/31 07:28:08;;;;;;;0.00;0.00;;;13.00;99.90;;;;;;4924431;29;20073;-64
2021/12/31 07:30:35;;;;;;;0.05;0.05;;;12.80;99.90;;;;;;4928995;28;20047;-64
2021/12/31 07:33:00;;;;;;;0.70;0.30;;;12.80;99.90;;;;;;4922828;29;20916;-64
2021/12/31 07:35:26;;;;;;;0.00;0.00;;;13.00;99.90;;;;;;4921509;28;20479;-64
2021/12/31 07:37:55;;;;;;;0.00;0.00;;;12.70;99.90;;;;;;4921862;28;20039;-64
2021/12/31 07:40:26;;;;;;;0.00;0.00;;;12.70;99.90;;;;;;4921339;28;20062;-64
2021/12/31 07:42:52;;;;;;;0.10;0.10;;;12.70;99.90;;;;;;4920297;28;20840;-64
2021/12/31 07:45:18;;;;;;;0.10;0.10;;;12.70;99.90;;;;;;4920996;29;20043;-64
2021/12/31 07:47:44;;;;;;;0.00;0.00;;;12.70;99.90;;;;;;4919904;29;20051;-64
2021/12/31 07:50:11;;;;;;;0.20;0.10;;;12.70;99.90;;;;;;4920366;28;20060;-64
2021/12/31 07:52:37;;;;;;;0.00;0.00;;;12.60;99.90;;;;;;4921346;28;20402;-63
2021/12/31 07:55:04;;;;;;;0.00;0.00;;;12.60;99.90;;;;;;4921409;29;20055;-64
2021/12/31 07:57:30;;;;;;;0.00;0.00;;;12.60;99.90;;;;;;4921582;28;20446;-64
2021/12/31 07:59:55;;;;;;;0.00;0.00;;;12.60;99.90;;;;;;4920843;28;20109;-64
2021/12/31 08:02:21;;;;;;;0.00;0.00;;;12.70;99.90;;;;;;4920305;28;20505;-64
2021/12/31 08:04:46;;;;;;;0.10;0.10;;;12.50;99.90;;;;;;4921526;29;20109;-64
2021/12/31 08:07:12;;;;;;;0.40;0.25;;;12.60;99.90;;;;;;4919606;28;20055;-63
2021/12/31 08:09:38;;;;;;;0.00;0.00;;;12.50;99.90;;;;;;4920284;28;20769;-64
2021/12/31 08:12:04;;;;;;;0.35;0.35;;;12.60;99.90;;;;;;4921354;28;20051;-66
2021/12/31 08:14:29;;;;;;;0.00;0.00;;;12.60;99.90;;;;;;4921762;28;20047;-64
2021/12/31 08:16:55;;;;;;;0.10;0.10;;;12.60;99.90;;;;;;4920066;28;20509;-67
2021/12/31 08:19:21;;;;;;;0.00;0.00;;;12.50;99.90;;;;;;4921646;29;20055;-65
2021/12/31 08:21:46;;;;;;;0.10;0.10;;;12.60;99.90;;;;;;4921219;28;20070;-65
2021/12/31 08:24:12;;;;;;;0.00;0.00;;;12.50;99.90;;;;;;4920294;29;20117;-65
2021/12/31 08:26:38;;;;;;;0.00;0.00;;;12.60;99.90;;;;;;4920936;28;20059;-66
2021/12/31 08:29:05;;;;;;;0.00;0.00;;;12.50;99.90;;;;;;4930311;29;20055;-65
2021/12/31 08:31:31;;;;;;;0.00;0.00;;;12.70;99.90;;;;;;4921074;28;20055;-66
2021/12/31 08:33:57;;;;;;;0.00;0.00;;;12.60;99.90;;;;;;4920547;29;20162;-66
2021/12/31 08:36:22;;;;;;;0.20;0.10;;;12.60;99.90;;;;;;4919941;28;20410;-65
2021/12/31 08:38:48;;;;;;;0.00;0.00;;;12.60;99.90;;;;;;4921234;29;20071;-66
2021/12/31 08:41:14;;;;;;;0.40;0.40;;;13.00;99.90;;;;;;4920265;28;20078;-66
2021/12/31 08:43:39;;;;;;;0.13;0.13;;;12.50;99.90;;;;;;4920555;28;20093;-65
2021/12/31 08:46:05;;;;;;;0.00;0.00;;;12.50;99.90;;;;;;4920069;29;20055;-67
2021/12/31 08:48:31;;;;;;;0.00;0.00;;;12.60;99.90;;;;;;4924565;28;20542;-66
2021/12/31 08:50:57;;;;;;;0.05;0.05;;;12.50;99.90;;;;;;4922774;29;20053;-66
2021/12/31 08:53:22;;;;;;;0.00;0.00;;;12.50;99.90;;;;;;4922231;29;20514;-66
2021/12/31 08:55:48;;;;;;;0.00;0.00;;;12.50;99.90;;;;;;4922938;28;20275;-66
2021/12/31 08:58:14;;;;;;;0.00;0.00;;;12.50;99.90;;;;;;4922924;29;20056;-66
2021/12/31 09:00:39;;;;;;;0.00;0.00;;;12.50;99.90;;;;;;4922102;28;20576;-66
2021/12/31 09:03:05;;;;;;;0.10;0.10;;;12.60;99.90;;;;;;4922064;29;20461;-66
2021/12/31 09:05:33;;;;;;;0.00;0.00;;;12.50;99.90;;;;;;4924375;29;20039;-66
2021/12/31 09:07:58;;;;;;;0.10;0.10;;;12.60;99.90;;;;;;4922522;28;20063;-66
2021/12/31 09:10:24;;;;;;;0.08;0.08;;;12.80;99.90;;;;;;4922429;28;20070;-66
2021/12/31 09:12:50;;;;;;;0.00;0.00;;;12.60;99.90;;;;;;4923001;28;20036;-66
2021/12/31 09:15:16;;;;;;;0.00;0.00;;;12.80;99.90;;;;;;4921799;29;20048;-66
2021/12/31 09:17:43;;;;;;;0.10;0.10;;;13.30;99.90;;;;;;4923616;28;20126;-66
2021/12/31 09:20:10;;;;;;;0.10;0.08;;;12.90;99.90;;;;;;4923677;29;20055;-66
2021/12/31 09:22:35;;;;;;;0.00;0.00;;;12.70;99.90;;;;;;4921857;28;20044;-66
2021/12/31 09:25:01;;;;;;;0.00;0.00;;;12.70;99.90;;;;;;4924227;28;20522;-66
2021/12/31 09:27:27;;;;;;;0.00;0.00;;;12.70;99.90;;;;;;4922869;29;20549;-66
2021/12/31 09:29:53;;;;;;;0.08;0.08;;;12.70;99.90;;;;;;4932528;28;20056;-67
2021/12/31 09:32:19;;;;;;;0.13;0.10;;;12.60;99.90;;;;;;4920647;29;20058;-67
2021/12/31 09:34:46;;;;;;;10.52;0.20;;;12.80;99.90;;;;;;4922837;29;20051;-67
2021/12/31 09:37:12;;;;;;;0.00;0.00;;;12.60;99.90;;;;;;4923367;29;20052;-66
2021/12/31 09:39:38;;;;;;;0.00;0.00;;;12.60;99.90;;;;;;4922824;28;20138;-67
2021/12/31 09:42:06;;;;;;;0.20;0.20;;;12.70;99.90;;;;;;4921717;29;20059;-67
2021/12/31 09:44:36;;;;;;;0.30;0.28;;;12.60;99.90;;;;;;4922518;29;20040;-66
2021/12/31 09:47:07;;;;;;;0.05;0.05;;;12.70;99.90;;;;;;4922334;28;20108;-66
2021/12/31 09:49:35;;;;;;;0.10;0.10;;;12.50;99.90;;;;;;4921955;28;20083;-67
2021/12/31 09:52:02;;;;;;;0.00;0.00;;;12.70;99.90;;;;;;4923761;28;20043;-66
2021/12/31 09:54:27;;;;;;;0.10;0.10;;;12.70;99.90;;;;;;4923690;29;20132;-66
2021/12/31 09:56:53;;;;;;;0.00;0.00;;;12.70;99.90;;;;;;4921381;28;20684;-66
2021/12/31 09:59:19;;;;;;;0.10;0.10;;;12.40;99.90;;;;;;4923240;29;20098;-66
2021/12/31 10:01:49;;;;;;;0.10;0.10;;;12.70;99.90;;;;;;4922291;28;20486;-66
2021/12/31 10:04:15;;;;;;;0.80;0.25;;;12.70;99.90;;;;;;4922105;29;20397;-66
2021/12/31 10:07:05;;;;;;;0.00;0.00;;;12.70;99.90;;;;;;4920902;29;20093;-66
2021/12/31 10:09:31;;;;;;;0.00;0.00;;;12.70;99.90;;;;;;4922377;28;20098;-66
2021/12/31 10:11:57;;;;;;;0.00;0.00;;;12.70;99.90;;;;;;4921501;29;20052;-66
2021/12/31 10:14:35;;;;;;;0.10;0.10;;;13.00;99.90;;;;;;4922887;29;20535;-66
2021/12/31 10:17:00;;;;;;;0.05;0.05;;;12.70;99.90;;;;;;4922268;29;20055;-66
2021/12/31 10:19:26;;;;;;;0.00;0.00;;;12.70;99.90;;;;;;4921388;29;20139;-65
2021/12/31 10:21:54;;;;;;;0.00;0.00;;;12.80;99.90;;;;;;4922839;28;20779;-66
2021/12/31 10:24:36;;;;;;;0.10;0.10;;;12.80;99.90;;;;;;4922789;28;20074;-66
2021/12/31 10:27:12;;;;;;;0.17;0.05;;;12.80;99.90;;;;;;4922044;29;20591;-66
2021/12/31 10:29:57;;;;;;;0.00;0.00;;;13.00;99.90;;;;;;4928556;28;20051;-66
2021/12/31 10:32:36;;;;;;;0.00;0.00;;;12.70;99.90;;;;;;4941202;28;20043;-66
2021/12/31 10:35:13;;;;;;;0.20;0.20;;;12.70;99.90;;;;;;4942036;28;20051;-66
2021/12/31 10:37:46;;;;;;;0.00;0.00;;;12.60;99.90;;;;;;4940605;28;20097;-66
2021/12/31 10:40:24;;;;;;;0.00;0.00;;;12.60;99.90;;;;;;4940479;28;20079;-66
2021/12/31 10:43:04;;;;;;;0.20;0.10;;;12.60;99.90;;;;;;4940230;28;20055;-66
2021/12/31 10:45:30;;;;;;;0.28;0.10;;;12.90;99.90;;;;;;4939996;28;20043;-65
2021/12/31 10:48:05;;;;;;;0.00;0.00;;;12.40;99.90;;;;;;4940302;29;20504;-66
2021/12/31 10:50:32;;;;;;;0.00;0.00;;;12.40;99.90;;;;;;4940584;28;20055;-66
2021/12/31 10:53:08;;;;;;;0.10;0.10;;;12.60;99.90;;;;;;4941124;28;20050;-65
2021/12/31 10:55:39;;;;;;;0.00;0.00;;;12.50;99.90;;;;;;4940276;28;20058;-61
2021/12/31 10:58:08;;;;;;;0.00;0.00;;;12.30;99.90;;;;;;4939518;28;20058;-65
2021/12/31 11:00:38;;;;;;;0.55;0.10;;;12.30;99.90;;;;;;4939469;28;20060;-65
2021/12/31 11:03:04;;;;;;;0.10;0.10;;;12.90;99.90;;;;;;4939812;28;20039;-65
2021/12/31 11:05:30;;;;;;;0.20;0.20;;;12.30;99.90;;;;;;4941473;28;20047;-64
2021/12/31 11:08:00;;;;;;;0.52;0.32;;;12.30;99.90;;;;;;4940679;28;20057;-67
2021/12/31 11:10:28;;;;;;;0.10;0.10;;;13.00;99.90;;;;;;4940219;28;20047;-68
2021/12/31 11:12:55;;;;;;;0.93;0.75;;;12.30;99.90;;;;;;4939878;28;20086;-66
2021/12/31 11:15:21;;;;;;;0.00;0.00;;;12.90;99.90;;;;;;4940287;28;20046;-67
2021/12/31 11:17:54;;;;;;;0.00;0.00;;;12.30;99.90;;;;;;4941021;28;20432;-67
2021/12/31 11:20:22;;;;;;;0.10;0.10;;;12.30;99.90;;;;;;4939744;28;20494;-67
2021/12/31 11:22:48;;;;;;;0.10;0.10;;;12.20;99.90;;;;;;4941070;28;20496;-65
2021/12/31 11:25:23;;;;;;;0.40;0.28;;;12.20;99.90;;;;;;4940230;28;20067;-65
2021/12/31 11:27:51;;;;;;;0.30;0.30;;;12.30;99.90;;;;;;4937639;28;20062;-67
2021/12/31 11:30:42;;;;;;;0.10;0.10;;;12.20;99.90;;;;;;4928143;29;20077;-65
2021/12/31 11:33:10;;;;;;;0.00;0.00;;;12.30;99.90;;;;;;4920428;29;20462;-63
2021/12/31 11:35:37;;;;;;;0.10;0.10;;;12.30;99.90;;;;;;4921449;29;20123;-65
2021/12/31 11:38:27;;;;;;;0.55;0.55;;;12.20;99.90;;;;;;4921079;28;20054;-65
2021/12/31 11:41:08;;;;;;;0.10;0.10;;;12.20;99.90;;;;;;4919694;28;20143;-67
2021/12/31 11:43:37;;;;;;;0.13;0.13;;;12.10;99.90;;;;;;4920032;29;20126;-65
2021/12/31 11:46:12;;;;;;;0.15;0.10;;;12.40;99.90;;;;;;5005561;28;20476;-65
2021/12/31 11:48:44;;;;;;;0.20;0.20;;;11.90;99.90;;;;;;5019879;28;20041;-65
2021/12/31 11:51:16;;;;;;;0.10;0.10;;;11.90;99.90;;;;;;5020212;28;20050;-65
2021/12/31 11:53:59;;;;;;;0.00;0.00;;;11.80;99.90;;;;;;5019981;28;20091;-66
2021/12/31 11:56:38;;;;;;;0.10;0.10;;;12.40;99.90;;;;;;5019562;28;20049;-66
2021/12/31 11:59:24;;;;;;;0.00;0.00;;;11.80;99.90;;;;;;5019418;28;20042;-66
2021/12/31 12:01:51;;;;;;;0.00;0.00;;;11.80;99.90;;;;;;5002810;28;20064;-66
2021/12/31 12:04:37;;;;;;;0.08;0.00;;;11.70;99.90;;;;;;5020701;28;20116;-66
2021/12/31 12:07:04;;;;;;;7.80;1.27;;;11.60;99.90;;;;;;5018488;28;20065;-66
2021/12/31 12:09:36;;;;;;;0.00;0.00;;;11.60;99.90;;;;;;5003277;28;20079;-66
2021/12/31 12:12:13;;;;;;;0.00;0.00;;;11.90;99.90;;;;;;5021068;28;20056;-66
2021/12/31 12:14:50;;;;;;;0.10;0.10;;;11.60;99.90;;;;;;5018474;28;20077;-66
2021/12/31 12:17:36;;;;;;;0.40;0.25;;;11.50;99.90;;;;;;5019680;28;20467;-66
2021/12/31 12:20:01;;;;;;;0.17;0.17;;;11.50;99.90;;;;;;5020398;28;20460;-68
2021/12/31 12:22:52;;;;;;;0.10;0.10;;;11.80;99.90;;;;;;5018719;28;20049;-67
2021/12/31 12:25:24;;;;;;;0.20;0.20;;;11.50;99.90;;;;;;5002686;28;20053;-67
2021/12/31 12:27:52;;;;;;;0.75;0.75;;;11.70;99.90;;;;;;4992693;28;20105;-67
2021/12/31 12:30:19;;;;;;;0.00;0.00;;;11.40;99.90;;;;;;4928523;28;20056;-66
2021/12/31 12:35:18;;;;;;;0.00;0.00;;;11.90;99.90;;;;;;4919642;29;20329;-67
2021/12/31 12:37:54;;;;;;;0.17;0.17;;;11.50;99.90;;;;;;4921240;28;20048;-67
2021/12/31 12:40:20;;;;;;;0.10;0.10;;;11.50;99.90;;;;;;4919417;29;20424;-67
2021/12/31 12:42:45;;;;;;;0.00;0.00;;;11.40;99.90;;;;;;4921090;29;20094;-67
2021/12/31 12:45:12;;;;;;;0.00;0.00;;;11.40;99.90;;;;;;4919139;29;20509;-68
2021/12/31 12:47:37;;;;;;;0.00;0.00;;;11.50;99.90;;;;;;4920736;29;20056;-67
2021/12/31 12:50:09;;;;;;;0.00;0.00;;;11.60;99.90;;;;;;4919962;29;20281;-67
2021/12/31 12:52:35;;;;;;;0.20;0.20;;;11.30;99.90;;;;;;4920598;29;20104;-55
2021/12/31 12:55:13;;;;;;;0.20;0.20;;;11.40;99.90;;;;;;4921329;29;20702;-58
2021/12/31 12:57:39;;;;;;;0.00;0.00;;;11.40;99.90;;;;;;4920143;29;20197;-69